sensor_id;sensor_type;location;lat;lon;timestamp;temperature;humidity
74153;DHT22;62505;46.070;14.492;2023-05-19T00:00:49;21.90;84.20
74153;DHT22;62505;46.070;14.492;2023-05-19T00:03:18;21.80;84.00
74153;DHT22;62505;46.070;14.492;2023-05-19T00:05:47;21.80;84.40
74153;DHT22;62505;46.070;14.492;2023-05-19T00:08:16;21.80;84.40
74153;DHT22;62505;46.070;14.492;2023-05-19T00:10:44;21.80;84.30
74153;DHT22;62505;46.070;14.492;2023-05-19T00:13:11;21.80;84.20
74153;DHT22;62505;46.070;14.492;2023-05-19T00:15:38;21.80;84.50
74153;DHT22;62505;46.070;14.492;2023-05-19T00:18:05;21.80;84.20
74153;DHT22;62505;46.070;14.492;2023-05-19T00:20:34;21.80;84.50
74153;DHT22;62505;46.070;14.492;2023-05-19T00:23:02;21.80;84.40
74153;DHT22;62505;46.070;14.492;2023-05-19T00:25:29;21.80;84.50
74153;DHT22;62505;46.070;14.492;2023-05-19T00:27:56;21.80;84.50
74153;DHT22;62505;46.070;14.492;2023-05-19T00:30:23;21.80;84.50
74153;DHT22;62505;46.070;14.492;2023-05-19T00:32:50;21.80;84.60
74153;DHT22;62505;46.070;14.492;2023-05-19T00:35:18;21.80;84.50
74153;DHT22;62505;46.070;14.492;2023-05-19T00:37:47;21.80;84.50
74153;DHT22;62505;46.070;14.492;2023-05-19T00:40:14;21.80;84.40
74153;DHT22;62505;46.070;14.492;2023-05-19T00:42:41;21.80;84.50
74153;DHT22;62505;46.070;14.492;2023-05-19T00:45:09;21.80;84.60
74153;DHT22;62505;46.070;14.492;2023-05-19T00:47:36;21.80;84.80
74153;DHT22;62505;46.070;14.492;2023-05-19T00:50:03;21.80;84.70
74153;DHT22;62505;46.070;14.492;2023-05-19T00:52:30;21.80;84.80
74153;DHT22;62505;46.070;14.492;2023-05-19T00:54:58;21.80;84.80
74153;DHT22;62505;46.070;14.492;2023-05-19T00:57:25;21.80;84.60
74153;DHT22;62505;46.070;14.492;2023-05-19T00:59:53;21.80;84.60
74153;DHT22;62505;46.070;14.492;2023-05-19T01:02:19;21.80;84.70
74153;DHT22;62505;46.070;14.492;2023-05-19T01:04:47;21.80;84.70
74153;DHT22;62505;46.070;14.492;2023-05-19T01:07:15;21.80;84.80
74153;DHT22;62505;46.070;14.492;2023-05-19T01:09:43;21.80;84.50
74153;DHT22;62505;46.070;14.492;2023-05-19T01:12:11;21.80;84.60
74153;DHT22;62505;46.070;14.492;2023-05-19T01:14:38;21.80;84.70
74153;DHT22;62505;46.070;14.492;2023-05-19T01:17:08;21.80;84.80
74153;DHT22;62505;46.070;14.492;2023-05-19T01:19:52;21.80;84.80
74153;DHT22;62505;46.070;14.492;2023-05-19T01:22:43;21.80;84.90
74153;DHT22;62505;46.070;14.492;2023-05-19T01:25:52;21.80;84.70
74153;DHT22;62505;46.070;14.492;2023-05-19T01:28:52;21.80;84.90
74153;DHT22;62505;46.070;14.492;2023-05-19T01:31:25;21.80;84.80
74153;DHT22;62505;46.070;14.492;2023-05-19T01:33:53;21.80;84.90
74153;DHT22;62505;46.070;14.492;2023-05-19T01:36:21;21.80;84.90
74153;DHT22;62505;46.070;14.492;2023-05-19T01:38:50;21.80;85.00
74153;DHT22;62505;46.070;14.492;2023-05-19T01:41:19;21.80;85.20
74153;DHT22;62505;46.070;14.492;2023-05-19T01:43:47;21.80;84.80
74153;DHT22;62505;46.070;14.492;2023-05-19T01:46:15;21.80;85.00
74153;DHT22;62505;46.070;14.492;2023-05-19T01:48:44;21.80;84.80
74153;DHT22;62505;46.070;14.492;2023-05-19T01:51:13;21.80;85.20
74153;DHT22;62505;46.070;14.492;2023-05-19T01:53:39;21.80;85.10
74153;DHT22;62505;46.070;14.492;2023-05-19T01:56:07;21.80;84.80
74153;DHT22;62505;46.070;14.492;2023-05-19T01:58:39;21.80;84.80
74153;DHT22;62505;46.070;14.492;2023-05-19T02:01:15;21.80;84.90
74153;DHT22;62505;46.070;14.492;2023-05-19T02:03:59;21.80;85.00
74153;DHT22;62505;46.070;14.492;2023-05-19T02:06:34;21.80;85.00
74153;DHT22;62505;46.070;14.492;2023-05-19T02:09:06;21.80;84.90
74153;DHT22;62505;46.070;14.492;2023-05-19T02:11:36;21.80;85.00
74153;DHT22;62505;46.070;14.492;2023-05-19T02:14:07;21.80;84.80
74153;DHT22;62505;46.070;14.492;2023-05-19T02:16:35;21.80;85.00
74153;DHT22;62505;46.070;14.492;2023-05-19T02:19:04;21.80;84.80
74153;DHT22;62505;46.070;14.492;2023-05-19T02:21:31;21.80;84.80
74153;DHT22;62505;46.070;14.492;2023-05-19T02:23:58;21.80;85.00
74153;DHT22;62505;46.070;14.492;2023-05-19T02:26:25;21.80;84.80
74153;DHT22;62505;46.070;14.492;2023-05-19T02:28:52;21.80;84.80
74153;DHT22;62505;46.070;14.492;2023-05-19T02:31:19;21.80;85.20
74153;DHT22;62505;46.070;14.492;2023-05-19T02:33:46;21.80;84.90
74153;DHT22;62505;46.070;14.492;2023-05-19T02:36:14;21.80;84.70
74153;DHT22;62505;46.070;14.492;2023-05-19T02:38:41;21.80;84.80
74153;DHT22;62505;46.070;14.492;2023-05-19T02:41:08;21.80;84.70
74153;DHT22;62505;46.070;14.492;2023-05-19T02:43:35;21.80;84.80
74153;DHT22;62505;46.070;14.492;2023-05-19T02:46:02;21.80;84.60
74153;DHT22;62505;46.070;14.492;2023-05-19T02:48:28;21.80;84.80
74153;DHT22;62505;46.070;14.492;2023-05-19T02:50:55;21.80;85.00
74153;DHT22;62505;46.070;14.492;2023-05-19T02:53:23;21.80;84.70
74153;DHT22;62505;46.070;14.492;2023-05-19T02:55:50;21.80;84.70
74153;DHT22;62505;46.070;14.492;2023-05-19T02:58:18;21.80;84.50
74153;DHT22;62505;46.070;14.492;2023-05-19T03:00:45;21.80;84.60
74153;DHT22;62505;46.070;14.492;2023-05-19T03:03:12;21.80;84.60
74153;DHT22;62505;46.070;14.492;2023-05-19T03:05:40;21.80;84.70
74153;DHT22;62505;46.070;14.492;2023-05-19T03:08:06;21.80;84.60
74153;DHT22;62505;46.070;14.492;2023-05-19T03:10:35;21.80;84.60
74153;DHT22;62505;46.070;14.492;2023-05-19T03:13:02;21.80;84.60
74153;DHT22;62505;46.070;14.492;2023-05-19T03:15:28;21.80;84.50
74153;DHT22;62505;46.070;14.492;2023-05-19T03:17:56;21.80;84.70
74153;DHT22;62505;46.070;14.492;2023-05-19T03:20:23;21.80;84.70
74153;DHT22;62505;46.070;14.492;2023-05-19T03:22:50;21.80;84.50
74153;DHT22;62505;46.070;14.492;2023-05-19T03:25:17;21.80;84.50
74153;DHT22;62505;46.070;14.492;2023-05-19T03:27:45;21.80;84.50
74153;DHT22;62505;46.070;14.492;2023-05-19T03:30:13;21.80;84.70
74153;DHT22;62505;46.070;14.492;2023-05-19T03:32:40;21.80;84.50
74153;DHT22;62505;46.070;14.492;2023-05-19T03:35:07;21.80;84.40
74153;DHT22;62505;46.070;14.492;2023-05-19T03:37:34;21.80;84.60
74153;DHT22;62505;46.070;14.492;2023-05-19T03:40:01;21.80;84.50
74153;DHT22;62505;46.070;14.492;2023-05-19T03:42:29;21.80;84.50
74153;DHT22;62505;46.070;14.492;2023-05-19T03:44:57;21.80;84.50
74153;DHT22;62505;46.070;14.492;2023-05-19T03:47:24;21.80;84.30
74153;DHT22;62505;46.070;14.492;2023-05-19T03:49:51;21.80;84.30
74153;DHT22;62505;46.070;14.492;2023-05-19T03:52:18;21.80;84.50
74153;DHT22;62505;46.070;14.492;2023-05-19T03:54:45;21.80;84.30
74153;DHT22;62505;46.070;14.492;2023-05-19T03:57:13;21.80;84.30
74153;DHT22;62505;46.070;14.492;2023-05-19T03:59:40;21.80;84.40
74153;DHT22;62505;46.070;14.492;2023-05-19T04:02:09;21.80;84.30
74153;DHT22;62505;46.070;14.492;2023-05-19T04:04:36;21.80;84.30
74153;DHT22;62505;46.070;14.492;2023-05-19T04:07:03;21.80;84.30
74153;DHT22;62505;46.070;14.492;2023-05-19T04:09:31;21.80;84.30
74153;DHT22;62505;46.070;14.492;2023-05-19T04:11:59;21.70;84.20
74153;DHT22;62505;46.070;14.492;2023-05-19T04:14:27;21.80;84.20
74153;DHT22;62505;46.070;14.492;2023-05-19T04:16:54;21.80;84.10
74153;DHT22;62505;46.070;14.492;2023-05-19T04:19:22;21.80;84.20
74153;DHT22;62505;46.070;14.492;2023-05-19T04:21:49;21.80;84.10
74153;DHT22;62505;46.070;14.492;2023-05-19T04:24:16;21.80;84.80
74153;DHT22;62505;46.070;14.492;2023-05-19T04:26:43;21.80;85.50
74153;DHT22;62505;46.070;14.492;2023-05-19T04:29:11;21.80;84.40
74153;DHT22;62505;46.070;14.492;2023-05-19T04:31:38;21.70;84.30
74153;DHT22;62505;46.070;14.492;2023-05-19T04:34:06;21.80;84.30
74153;DHT22;62505;46.070;14.492;2023-05-19T04:36:35;21.80;84.20
74153;DHT22;62505;46.070;14.492;2023-05-19T04:39:03;21.80;84.30
74153;DHT22;62505;46.070;14.492;2023-05-19T04:41:32;21.70;84.10
74153;DHT22;62505;46.070;14.492;2023-05-19T04:43:59;21.80;84.10
74153;DHT22;62505;46.070;14.492;2023-05-19T04:46:26;21.80;84.10
74153;DHT22;62505;46.070;14.492;2023-05-19T04:48:54;21.80;84.20
74153;DHT22;62505;46.070;14.492;2023-05-19T04:51:21;21.80;84.10
74153;DHT22;62505;46.070;14.492;2023-05-19T04:53:54;21.80;84.10
74153;DHT22;62505;46.070;14.492;2023-05-19T04:56:21;21.80;84.00
74153;DHT22;62505;46.070;14.492;2023-05-19T04:58:48;21.80;84.10
74153;DHT22;62505;46.070;14.492;2023-05-19T05:01:15;21.80;84.20
74153;DHT22;62505;46.070;14.492;2023-05-19T05:03:42;21.80;84.00
74153;DHT22;62505;46.070;14.492;2023-05-19T05:06:09;21.80;83.10
74153;DHT22;62505;46.070;14.492;2023-05-19T05:08:36;21.70;81.60
74153;DHT22;62505;46.070;14.492;2023-05-19T05:11:07;21.70;78.90
74153;DHT22;62505;46.070;14.492;2023-05-19T05:13:34;21.70;77.00
74153;DHT22;62505;46.070;14.492;2023-05-19T05:16:02;21.70;75.50
74153;DHT22;62505;46.070;14.492;2023-05-19T05:18:31;21.70;76.00
74153;DHT22;62505;46.070;14.492;2023-05-19T05:20:59;21.70;75.10
74153;DHT22;62505;46.070;14.492;2023-05-19T05:23:26;21.60;74.30
74153;DHT22;62505;46.070;14.492;2023-05-19T05:25:53;21.60;73.20
74153;DHT22;62505;46.070;14.492;2023-05-19T05:28:22;21.60;72.70
74153;DHT22;62505;46.070;14.492;2023-05-19T05:30:49;21.60;72.70
74153;DHT22;62505;46.070;14.492;2023-05-19T05:33:16;21.60;72.50
74153;DHT22;62505;46.070;14.492;2023-05-19T05:35:43;21.60;72.20
74153;DHT22;62505;46.070;14.492;2023-05-19T05:38:11;21.60;72.30
74153;DHT22;62505;46.070;14.492;2023-05-19T05:40:38;21.50;72.20
74153;DHT22;62505;46.070;14.492;2023-05-19T05:43:04;21.50;71.70
74153;DHT22;62505;46.070;14.492;2023-05-19T05:45:33;21.50;70.10
74153;DHT22;62505;46.070;14.492;2023-05-19T05:48:00;21.50;70.70
74153;DHT22;62505;46.070;14.492;2023-05-19T05:50:27;21.50;70.40
74153;DHT22;62505;46.070;14.492;2023-05-19T05:52:56;21.50;69.70
74153;DHT22;62505;46.070;14.492;2023-05-19T05:55:26;21.50;69.20
74153;DHT22;62505;46.070;14.492;2023-05-19T05:57:53;21.50;69.80
74153;DHT22;62505;46.070;14.492;2023-05-19T06:00:21;21.50;70.80
74153;DHT22;62505;46.070;14.492;2023-05-19T06:02:50;21.50;71.10
74153;DHT22;62505;46.070;14.492;2023-05-19T06:05:17;21.40;70.70
74153;DHT22;62505;46.070;14.492;2023-05-19T06:07:43;21.50;71.70
74153;DHT22;62505;46.070;14.492;2023-05-19T06:10:11;21.40;71.20
74153;DHT22;62505;46.070;14.492;2023-05-19T06:12:38;21.40;71.70
74153;DHT22;62505;46.070;14.492;2023-05-19T06:15:07;21.50;72.10
74153;DHT22;62505;46.070;14.492;2023-05-19T06:17:34;21.50;72.50
74153;DHT22;62505;46.070;14.492;2023-05-19T06:20:03;21.40;72.60
74153;DHT22;62505;46.070;14.492;2023-05-19T06:22:30;21.40;72.80
74153;DHT22;62505;46.070;14.492;2023-05-19T06:24:57;21.50;73.00
74153;DHT22;62505;46.070;14.492;2023-05-19T06:27:24;21.50;73.20
74153;DHT22;62505;46.070;14.492;2023-05-19T06:29:51;21.50;73.40
74153;DHT22;62505;46.070;14.492;2023-05-19T06:32:18;21.50;73.60
74153;DHT22;62505;46.070;14.492;2023-05-19T06:34:45;21.50;73.70
74153;DHT22;62505;46.070;14.492;2023-05-19T06:37:19;21.40;73.80
74153;DHT22;62505;46.070;14.492;2023-05-19T06:39:47;21.50;74.00
74153;DHT22;62505;46.070;14.492;2023-05-19T06:42:16;21.50;74.20
74153;DHT22;62505;46.070;14.492;2023-05-19T06:44:46;21.50;74.40
74153;DHT22;62505;46.070;14.492;2023-05-19T06:47:13;21.50;74.50
74153;DHT22;62505;46.070;14.492;2023-05-19T06:49:40;21.50;74.50
74153;DHT22;62505;46.070;14.492;2023-05-19T06:52:07;21.50;74.80
74153;DHT22;62505;46.070;14.492;2023-05-19T06:54:36;21.50;74.70
74153;DHT22;62505;46.070;14.492;2023-05-19T06:57:03;21.50;74.80
74153;DHT22;62505;46.070;14.492;2023-05-19T06:59:30;21.50;74.90
74153;DHT22;62505;46.070;14.492;2023-05-19T07:01:57;21.50;75.00
74153;DHT22;62505;46.070;14.492;2023-05-19T07:04:23;21.50;75.10
74153;DHT22;62505;46.070;14.492;2023-05-19T07:06:50;21.50;75.10
74153;DHT22;62505;46.070;14.492;2023-05-19T07:09:18;21.50;75.20
74153;DHT22;62505;46.070;14.492;2023-05-19T07:11:46;21.50;75.30
74153;DHT22;62505;46.070;14.492;2023-05-19T07:14:13;21.50;75.50
74153;DHT22;62505;46.070;14.492;2023-05-19T07:16:40;21.50;75.30
74153;DHT22;62505;46.070;14.492;2023-05-19T07:19:07;21.50;75.40
74153;DHT22;62505;46.070;14.492;2023-05-19T07:21:34;21.50;75.50
74153;DHT22;62505;46.070;14.492;2023-05-19T07:24:01;21.50;75.60
74153;DHT22;62505;46.070;14.492;2023-05-19T07:26:28;21.50;75.80
74153;DHT22;62505;46.070;14.492;2023-05-19T07:28:56;21.50;75.70
74153;DHT22;62505;46.070;14.492;2023-05-19T07:31:23;21.50;75.60
74153;DHT22;62505;46.070;14.492;2023-05-19T07:33:50;21.50;75.70
74153;DHT22;62505;46.070;14.492;2023-05-19T07:36:17;21.50;75.80
74153;DHT22;62505;46.070;14.492;2023-05-19T07:38:44;21.50;76.00
74153;DHT22;62505;46.070;14.492;2023-05-19T07:41:11;21.60;75.90
74153;DHT22;62505;46.070;14.492;2023-05-19T07:43:38;21.50;75.90
74153;DHT22;62505;46.070;14.492;2023-05-19T07:46:06;21.50;76.00
74153;DHT22;62505;46.070;14.492;2023-05-19T07:48:33;21.50;75.90
74153;DHT22;62505;46.070;14.492;2023-05-19T07:51:01;21.50;76.00
74153;DHT22;62505;46.070;14.492;2023-05-19T07:53:28;21.50;75.90
74153;DHT22;62505;46.070;14.492;2023-05-19T07:55:55;21.60;76.00
74153;DHT22;62505;46.070;14.492;2023-05-19T07:58:21;21.60;76.10
74153;DHT22;62505;46.070;14.492;2023-05-19T08:00:48;21.60;76.10
74153;DHT22;62505;46.070;14.492;2023-05-19T08:03:20;21.60;76.10
74153;DHT22;62505;46.070;14.492;2023-05-19T08:05:48;21.60;76.10
74153;DHT22;62505;46.070;14.492;2023-05-19T08:08:16;21.60;76.10
74153;DHT22;62505;46.070;14.492;2023-05-19T08:10:44;21.60;76.20
74153;DHT22;62505;46.070;14.492;2023-05-19T08:13:11;21.60;76.10
74153;DHT22;62505;46.070;14.492;2023-05-19T08:15:39;21.50;76.10
74153;DHT22;62505;46.070;14.492;2023-05-19T08:18:06;21.60;76.20
74153;DHT22;62505;46.070;14.492;2023-05-19T08:20:34;21.60;76.20
74153;DHT22;62505;46.070;14.492;2023-05-19T08:23:01;21.60;76.20
74153;DHT22;62505;46.070;14.492;2023-05-19T08:25:28;21.60;76.30
74153;DHT22;62505;46.070;14.492;2023-05-19T08:27:55;21.60;76.30
74153;DHT22;62505;46.070;14.492;2023-05-19T08:30:22;21.60;76.20
74153;DHT22;62505;46.070;14.492;2023-05-19T08:32:49;21.60;76.20
74153;DHT22;62505;46.070;14.492;2023-05-19T08:35:16;21.60;76.20
74153;DHT22;62505;46.070;14.492;2023-05-19T08:37:44;21.60;76.20
74153;DHT22;62505;46.070;14.492;2023-05-19T08:40:16;21.60;76.20
74153;DHT22;62505;46.070;14.492;2023-05-19T08:42:43;21.60;76.20
74153;DHT22;62505;46.070;14.492;2023-05-19T08:45:10;21.60;76.20
74153;DHT22;62505;46.070;14.492;2023-05-19T08:47:37;21.60;76.30
74153;DHT22;62505;46.070;14.492;2023-05-19T08:50:06;21.60;76.20
74153;DHT22;62505;46.070;14.492;2023-05-19T08:52:41;21.60;76.20
74153;DHT22;62505;46.070;14.492;2023-05-19T08:55:20;21.60;76.20
74153;DHT22;62505;46.070;14.492;2023-05-19T08:57:52;21.60;76.20
74153;DHT22;62505;46.070;14.492;2023-05-19T09:00:19;21.60;76.20
74153;DHT22;62505;46.070;14.492;2023-05-19T09:02:48;21.60;76.20
74153;DHT22;62505;46.070;14.492;2023-05-19T09:05:16;21.60;76.20
74153;DHT22;62505;46.070;14.492;2023-05-19T09:07:44;21.60;76.10
74153;DHT22;62505;46.070;14.492;2023-05-19T09:10:12;21.60;76.10
74153;DHT22;62505;46.070;14.492;2023-05-19T09:12:42;21.60;76.10
74153;DHT22;62505;46.070;14.492;2023-05-19T09:15:11;21.60;76.00
74153;DHT22;62505;46.070;14.492;2023-05-19T09:17:38;21.60;76.70
74153;DHT22;62505;46.070;14.492;2023-05-19T09:20:06;21.60;76.10
74153;DHT22;62505;46.070;14.492;2023-05-19T09:22:40;21.60;76.00
74153;DHT22;62505;46.070;14.492;2023-05-19T09:25:18;21.60;76.00
74153;DHT22;62505;46.070;14.492;2023-05-19T09:27:45;21.60;76.00
74153;DHT22;62505;46.070;14.492;2023-05-19T09:30:14;21.60;76.00
74153;DHT22;62505;46.070;14.492;2023-05-19T09:32:41;21.60;76.00
74153;DHT22;62505;46.070;14.492;2023-05-19T09:35:08;21.60;76.00
74153;DHT22;62505;46.070;14.492;2023-05-19T09:37:38;21.60;76.10
74153;DHT22;62505;46.070;14.492;2023-05-19T09:40:07;21.60;76.00
74153;DHT22;62505;46.070;14.492;2023-05-19T09:42:38;21.60;76.00
74153;DHT22;62505;46.070;14.492;2023-05-19T09:45:06;21.60;76.00
74153;DHT22;62505;46.070;14.492;2023-05-19T09:47:34;21.60;76.00
74153;DHT22;62505;46.070;14.492;2023-05-19T09:50:04;21.60;76.00
74153;DHT22;62505;46.070;14.492;2023-05-19T09:52:33;21.60;76.00
74153;DHT22;62505;46.070;14.492;2023-05-19T09:55:01;21.60;75.90
74153;DHT22;62505;46.070;14.492;2023-05-19T09:57:32;21.60;76.10
74153;DHT22;62505;46.070;14.492;2023-05-19T10:00:02;21.60;76.00
74153;DHT22;62505;46.070;14.492;2023-05-19T10:02:36;21.60;76.00
74153;DHT22;62505;46.070;14.492;2023-05-19T10:05:05;21.60;76.00
74153;DHT22;62505;46.070;14.492;2023-05-19T10:07:33;21.60;76.00
74153;DHT22;62505;46.070;14.492;2023-05-19T10:10:01;21.60;76.00
74153;DHT22;62505;46.070;14.492;2023-05-19T10:12:29;21.60;75.90
74153;DHT22;62505;46.070;14.492;2023-05-19T10:14:58;21.60;75.90
74153;DHT22;62505;46.070;14.492;2023-05-19T10:17:27;21.70;76.00
74153;DHT22;62505;46.070;14.492;2023-05-19T10:19:54;21.60;76.00
74153;DHT22;62505;46.070;14.492;2023-05-19T10:22:22;21.60;75.90
74153;DHT22;62505;46.070;14.492;2023-05-19T10:24:49;21.60;76.00
74153;DHT22;62505;46.070;14.492;2023-05-19T10:27:16;21.70;76.10
74153;DHT22;62505;46.070;14.492;2023-05-19T10:29:47;21.60;76.70
74153;DHT22;62505;46.070;14.492;2023-05-19T10:32:19;21.60;75.90
74153;DHT22;62505;46.070;14.492;2023-05-19T10:35:15;21.60;76.00
74153;DHT22;62505;46.070;14.492;2023-05-19T10:37:52;21.60;75.90
74153;DHT22;62505;46.070;14.492;2023-05-19T10:40:26;21.60;75.90
74153;DHT22;62505;46.070;14.492;2023-05-19T10:43:04;21.70;75.90
74153;DHT22;62505;46.070;14.492;2023-05-19T10:45:46;21.70;75.90
74153;DHT22;62505;46.070;14.492;2023-05-19T10:48:13;21.70;75.90
74153;DHT22;62505;46.070;14.492;2023-05-19T10:50:44;21.70;75.90
74153;DHT22;62505;46.070;14.492;2023-05-19T10:53:15;21.70;75.90
74153;DHT22;62505;46.070;14.492;2023-05-19T10:55:49;21.70;76.00
74153;DHT22;62505;46.070;14.492;2023-05-19T10:58:40;21.70;76.00
74153;DHT22;62505;46.070;14.492;2023-05-19T11:01:16;21.70;76.00
74153;DHT22;62505;46.070;14.492;2023-05-19T11:03:45;21.70;76.80
74153;DHT22;62505;46.070;14.492;2023-05-19T11:06:18;21.70;76.00
74153;DHT22;62505;46.070;14.492;2023-05-19T11:08:46;21.60;75.90
74153;DHT22;62505;46.070;14.492;2023-05-19T11:11:20;21.70;75.90
74153;DHT22;62505;46.070;14.492;2023-05-19T11:13:49;21.70;75.90
74153;DHT22;62505;46.070;14.492;2023-05-19T11:16:18;21.70;75.90
74153;DHT22;62505;46.070;14.492;2023-05-19T11:18:48;21.60;75.80
74153;DHT22;62505;46.070;14.492;2023-05-19T11:21:18;21.70;75.80
74153;DHT22;62505;46.070;14.492;2023-05-19T11:23:45;21.70;75.80
74153;DHT22;62505;46.070;14.492;2023-05-19T11:26:12;21.70;75.80
74153;DHT22;62505;46.070;14.492;2023-05-19T11:28:39;21.70;75.80
74153;DHT22;62505;46.070;14.492;2023-05-19T11:31:08;21.70;75.80
74153;DHT22;62505;46.070;14.492;2023-05-19T11:33:37;21.70;75.80
74153;DHT22;62505;46.070;14.492;2023-05-19T11:36:05;21.70;75.80
74153;DHT22;62505;46.070;14.492;2023-05-19T11:38:34;21.70;75.80
74153;DHT22;62505;46.070;14.492;2023-05-19T11:41:00;21.70;75.70
74153;DHT22;62505;46.070;14.492;2023-05-19T11:43:29;21.70;75.70
74153;DHT22;62505;46.070;14.492;2023-05-19T11:45:55;21.70;75.70
74153;DHT22;62505;46.070;14.492;2023-05-19T11:48:23;21.70;75.70
74153;DHT22;62505;46.070;14.492;2023-05-19T11:50:50;21.70;75.70
74153;DHT22;62505;46.070;14.492;2023-05-19T11:53:18;21.70;75.60
74153;DHT22;62505;46.070;14.492;2023-05-19T11:55:47;21.70;75.60
74153;DHT22;62505;46.070;14.492;2023-05-19T11:58:14;21.70;75.60
74153;DHT22;62505;46.070;14.492;2023-05-19T12:00:42;21.70;75.70
74153;DHT22;62505;46.070;14.492;2023-05-19T12:03:10;21.70;75.60
74153;DHT22;62505;46.070;14.492;2023-05-19T12:05:41;21.70;75.60
74153;DHT22;62505;46.070;14.492;2023-05-19T12:08:08;21.70;75.60
74153;DHT22;62505;46.070;14.492;2023-05-19T12:10:36;21.70;75.60
74153;DHT22;62505;46.070;14.492;2023-05-19T12:13:06;21.70;75.60
74153;DHT22;62505;46.070;14.492;2023-05-19T12:15:33;21.70;75.50
74153;DHT22;62505;46.070;14.492;2023-05-19T12:18:01;21.70;75.60
74153;DHT22;62505;46.070;14.492;2023-05-19T12:20:29;21.70;75.50
74153;DHT22;62505;46.070;14.492;2023-05-19T12:22:57;21.60;75.40
74153;DHT22;62505;46.070;14.492;2023-05-19T12:25:26;21.70;75.50
74153;DHT22;62505;46.070;14.492;2023-05-19T12:27:56;21.70;75.40
74153;DHT22;62505;46.070;14.492;2023-05-19T12:30:29;21.70;75.40
74153;DHT22;62505;46.070;14.492;2023-05-19T12:32:56;21.70;75.50
74153;DHT22;62505;46.070;14.492;2023-05-19T12:35:25;21.70;75.40
74153;DHT22;62505;46.070;14.492;2023-05-19T12:37:53;21.70;75.40
74153;DHT22;62505;46.070;14.492;2023-05-19T12:40:20;21.70;75.30
74153;DHT22;62505;46.070;14.492;2023-05-19T12:42:48;21.70;75.40
74153;DHT22;62505;46.070;14.492;2023-05-19T12:45:22;21.70;75.30
74153;DHT22;62505;46.070;14.492;2023-05-19T12:47:51;21.70;75.30
74153;DHT22;62505;46.070;14.492;2023-05-19T12:50:18;21.70;75.30
74153;DHT22;62505;46.070;14.492;2023-05-19T12:52:46;21.70;75.30
74153;DHT22;62505;46.070;14.492;2023-05-19T12:55:15;21.70;75.30
74153;DHT22;62505;46.070;14.492;2023-05-19T12:57:46;21.70;75.40
74153;DHT22;62505;46.070;14.492;2023-05-19T13:00:15;21.70;75.30
74153;DHT22;62505;46.070;14.492;2023-05-19T13:02:56;21.70;75.30
74153;DHT22;62505;46.070;14.492;2023-05-19T13:05:24;21.70;75.30
74153;DHT22;62505;46.070;14.492;2023-05-19T13:07:59;21.70;75.30
74153;DHT22;62505;46.070;14.492;2023-05-19T13:10:27;21.60;75.30
74153;DHT22;62505;46.070;14.492;2023-05-19T13:12:55;21.70;75.30
74153;DHT22;62505;46.070;14.492;2023-05-19T13:15:23;21.70;75.30
74153;DHT22;62505;46.070;14.492;2023-05-19T13:17:50;21.70;75.30
74153;DHT22;62505;46.070;14.492;2023-05-19T13:20:19;21.70;75.30
74153;DHT22;62505;46.070;14.492;2023-05-19T13:22:46;21.70;75.30
74153;DHT22;62505;46.070;14.492;2023-05-19T13:25:13;21.60;75.20
74153;DHT22;62505;46.070;14.492;2023-05-19T13:27:41;21.70;75.30
74153;DHT22;62505;46.070;14.492;2023-05-19T13:30:09;21.70;75.30
74153;DHT22;62505;46.070;14.492;2023-05-19T13:32:36;21.60;75.20
74153;DHT22;62505;46.070;14.492;2023-05-19T13:35:03;21.70;75.30
74153;DHT22;62505;46.070;14.492;2023-05-19T13:37:31;21.70;75.30
74153;DHT22;62505;46.070;14.492;2023-05-19T13:39:59;21.70;75.30
74153;DHT22;62505;46.070;14.492;2023-05-19T13:42:26;21.70;75.20
74153;DHT22;62505;46.070;14.492;2023-05-19T13:44:53;21.70;75.20
74153;DHT22;62505;46.070;14.492;2023-05-19T13:47:21;21.70;75.20
74153;DHT22;62505;46.070;14.492;2023-05-19T13:49:48;21.70;75.20
74153;DHT22;62505;46.070;14.492;2023-05-19T13:52:16;21.70;75.20
74153;DHT22;62505;46.070;14.492;2023-05-19T13:54:44;21.60;75.10
74153;DHT22;62505;46.070;14.492;2023-05-19T13:57:11;21.70;75.20
74153;DHT22;62505;46.070;14.492;2023-05-19T13:59:38;21.60;75.00
74153;DHT22;62505;46.070;14.492;2023-05-19T14:02:06;21.70;75.20
74153;DHT22;62505;46.070;14.492;2023-05-19T14:04:35;21.70;75.20
74153;DHT22;62505;46.070;14.492;2023-05-19T14:07:02;21.70;75.20
74153;DHT22;62505;46.070;14.492;2023-05-19T14:09:29;21.70;75.20
74153;DHT22;62505;46.070;14.492;2023-05-19T14:11:58;21.70;75.10
74153;DHT22;62505;46.070;14.492;2023-05-19T14:14:25;21.70;75.10
74153;DHT22;62505;46.070;14.492;2023-05-19T14:16:51;21.70;75.20
74153;DHT22;62505;46.070;14.492;2023-05-19T14:19:18;21.70;75.20
74153;DHT22;62505;46.070;14.492;2023-05-19T14:21:45;21.70;75.10
74153;DHT22;62505;46.070;14.492;2023-05-19T14:24:12;21.60;75.00
74153;DHT22;62505;46.070;14.492;2023-05-19T14:26:39;21.70;75.10
74153;DHT22;62505;46.070;14.492;2023-05-19T14:29:07;21.70;75.10
74153;DHT22;62505;46.070;14.492;2023-05-19T14:31:34;21.60;75.00
74153;DHT22;62505;46.070;14.492;2023-05-19T14:34:01;21.60;75.00
74153;DHT22;62505;46.070;14.492;2023-05-19T14:36:28;21.70;75.10
74153;DHT22;62505;46.070;14.492;2023-05-19T14:38:55;21.70;75.10
74153;DHT22;62505;46.070;14.492;2023-05-19T14:41:22;21.70;75.10
74153;DHT22;62505;46.070;14.492;2023-05-19T14:43:49;21.60;75.00
74153;DHT22;62505;46.070;14.492;2023-05-19T14:46:17;21.60;75.00
74153;DHT22;62505;46.070;14.492;2023-05-19T14:48:44;21.70;75.10
74153;DHT22;62505;46.070;14.492;2023-05-19T14:51:11;21.70;75.10
74153;DHT22;62505;46.070;14.492;2023-05-19T14:53:37;21.70;75.00
74153;DHT22;62505;46.070;14.492;2023-05-19T14:56:05;21.70;75.00
74153;DHT22;62505;46.070;14.492;2023-05-19T14:58:32;21.70;75.10
74153;DHT22;62505;46.070;14.492;2023-05-19T15:00:59;21.60;74.90
74153;DHT22;62505;46.070;14.492;2023-05-19T15:03:28;21.70;75.00
74153;DHT22;62505;46.070;14.492;2023-05-19T15:05:55;21.70;75.00
74153;DHT22;62505;46.070;14.492;2023-05-19T15:08:22;21.70;74.90
74153;DHT22;62505;46.070;14.492;2023-05-19T15:10:50;21.60;74.90
74153;DHT22;62505;46.070;14.492;2023-05-19T15:13:17;21.70;75.00
74153;DHT22;62505;46.070;14.492;2023-05-19T15:15:45;21.70;75.10
74153;DHT22;62505;46.070;14.492;2023-05-19T15:18:12;21.60;74.90
74153;DHT22;62505;46.070;14.492;2023-05-19T15:20:43;21.70;74.90
74153;DHT22;62505;46.070;14.492;2023-05-19T15:23:11;21.60;74.80